Time;durP1;ratioP1;P1;durP2;ratioP2;P2;SDS_P1;SDS_P2;PMS_P1;PMS_P2;Temp;Humidity;BMP_temperature;BMP_pressure;BME280_temperature;BME280_humidity;BME280_pressure;Samples;Min_cycle;Max_cycle;Signal;HPM_P1;HPM_P2
2022/07/23 00:02:16;;;;;;;7.05;4.78;;;24.60;99.90;;;;;;5239413;28;20017;-60
2022/07/23 00:04:51;;;;;;;4.50;3.60;;;24.60;99.90;;;;;;5232035;28;20052;-62
2022/07/23 00:07:22;;;;;;;4.82;3.40;;;24.60;99.90;;;;;;5251437;28;20020;-63
2022/07/23 00:09:53;;;;;;;4.80;3.40;;;24.60;99.90;;;;;;5259647;28;20031;-61
2022/07/23 00:12:25;;;;;;;8.63;4.07;;;24.50;99.90;;;;;;5261905;28;20020;-62
2022/07/23 00:15:00;;;;;;;4.63;3.85;;;24.50;99.90;;;;;;5262691;28;20027;-63
2022/07/23 00:17:36;;;;;;;5.35;3.45;;;24.50;99.90;;;;;;5247898;28;20558;-62
2022/07/23 00:20:08;;;;;;;7.65;4.25;;;24.50;99.90;;;;;;5226197;28;20349;-62
2022/07/23 00:22:52;;;;;;;5.22;4.25;;;24.40;99.90;;;;;;5242649;28;20026;-64
2022/07/23 00:25:27;;;;;;;5.80;3.67;;;24.40;99.90;;;;;;5226853;28;20225;-61
2022/07/23 00:28:02;;;;;;;7.60;3.88;;;24.40;99.90;;;;;;5261646;28;20020;-61
2022/07/23 00:30:36;;;;;;;7.50;3.50;;;24.50;99.90;;;;;;5261302;28;20320;-62
2022/07/23 00:33:08;;;;;;;4.53;4.10;;;24.40;99.90;;;;;;5206363;28;20039;-62
2022/07/23 00:35:45;;;;;;;5.20;3.60;;;24.40;99.90;;;;;;5244115;28;20020;-62
2022/07/23 00:38:17;;;;;;;6.90;3.47;;;24.40;99.90;;;;;;5243760;28;20015;-62
2022/07/23 00:40:48;;;;;;;5.68;3.58;;;24.40;99.90;;;;;;5245990;28;20028;-62
2022/07/23 00:43:27;;;;;;;4.40;3.50;;;24.30;99.90;;;;;;5243928;28;20309;-62
2022/07/23 00:45:59;;;;;;;4.68;3.95;;;24.30;99.90;;;;;;5220936;28;20024;-62
2022/07/23 00:48:34;;;;;;;6.78;4.38;;;24.20;99.90;;;;;;5241689;28;20012;-62
2022/07/23 00:51:05;;;;;;;4.80;3.70;;;24.20;99.90;;;;;;5239961;28;20185;-62
2022/07/23 00:53:37;;;;;;;6.95;3.92;;;24.20;99.90;;;;;;5241079;28;20271;-62
2022/07/23 00:56:13;;;;;;;4.97;3.60;;;24.20;99.90;;;;;;5222670;28;20235;-63
2022/07/23 00:58:45;;;;;;;5.57;3.22;;;24.10;99.90;;;;;;5240262;28;20028;-62
2022/07/23 01:01:16;;;;;;;4.55;3.60;;;24.00;99.90;;;;;;5241481;28;20018;-63
2022/07/23 01:03:48;;;;;;;4.57;3.70;;;23.90;99.90;;;;;;5241525;28;20020;-63
2022/07/23 01:06:25;;;;;;;5.93;3.65;;;23.90;99.90;;;;;;5211796;28;20048;-62
2022/07/23 01:09:05;;;;;;;6.63;3.95;;;23.80;99.90;;;;;;5221541;28;20221;-62
2022/07/23 01:11:40;;;;;;;5.43;3.70;;;23.80;99.90;;;;;;5240600;28;20034;-62
2022/07/23 01:14:18;;;;;;;5.75;4.15;;;23.80;99.90;;;;;;5240942;28;20089;-62
2022/07/23 01:16:49;;;;;;;6.15;3.50;;;23.80;99.90;;;;;;5221251;28;20028;-62
2022/07/23 01:19:23;;;;;;;5.68;4.50;;;23.80;99.90;;;;;;5239983;28;20027;-63
2022/07/23 01:22:01;;;;;;;5.47;3.83;;;23.90;99.90;;;;;;5201989;28;20027;-62
2022/07/23 01:24:32;;;;;;;4.00;3.35;;;23.90;99.90;;;;;;5220746;28;20029;-63
2022/07/23 01:27:05;;;;;;;7.00;3.03;;;23.90;99.90;;;;;;5223294;28;20330;-62
2022/07/23 01:29:36;;;;;;;3.45;3.15;;;23.90;99.90;;;;;;5241369;28;20020;-62
2022/07/23 01:32:07;;;;;;;5.72;4.20;;;24.00;99.90;;;;;;5220890;28;20036;-62
2022/07/23 01:34:40;;;;;;;4.80;3.80;;;24.10;99.90;;;;;;5240227;28;20038;-62
2022/07/23 01:37:17;;;;;;;6.68;4.10;;;24.10;99.90;;;;;;5239162;28;20021;-62
2022/07/23 01:39:50;;;;;;;5.20;3.60;;;24.30;99.90;;;;;;5247893;28;20023;-61
2022/07/23 01:42:25;;;;;;;4.90;3.63;;;24.90;99.90;;;;;;5255592;28;20030;-61
2022/07/23 01:44:56;;;;;;;4.43;3.63;;;25.20;99.90;;;;;;5217025;28;20033;-62
2022/07/23 01:47:27;;;;;;;6.30;4.25;;;25.40;99.90;;;;;;5239886;28;20037;-61
2022/07/23 01:50:03;;;;;;;4.82;4.13;;;25.60;99.90;;;;;;5242261;28;20241;-62
2022/07/23 01:52:37;;;;;;;5.15;4.20;;;25.60;99.90;;;;;;5238218;28;20213;-62
2022/07/23 01:55:11;;;;;;;7.15;5.05;;;25.70;99.90;;;;;;5207552;28;20036;-63
2022/07/23 01:57:47;;;;;;;5.88;3.80;;;25.80;99.90;;;;;;5222545;28;20089;-62
2022/07/23 02:00:21;;;;;;;4.85;3.88;;;25.90;99.90;;;;;;5204765;28;20036;-62
2022/07/23 02:02:59;;;;;;;5.53;3.70;;;26.00;99.90;;;;;;5241425;28;20062;-62
2022/07/23 02:05:34;;;;;;;5.32;4.07;;;26.10;99.90;;;;;;5227099;28;20040;-62
2022/07/23 02:08:05;;;;;;;5.78;4.32;;;26.00;99.90;;;;;;5245551;28;20025;-62
2022/07/23 02:10:39;;;;;;;5.82;4.20;;;26.10;99.90;;;;;;5238726;28;20314;-62
2022/07/23 02:13:10;;;;;;;;;;;26.10;99.90;;;;;;5241081;28;20314;-62
2022/07/23 02:15:47;;;;;;;5.20;4.20;;;26.10;99.90;;;;;;5221417;28;19918;-60
2022/07/23 02:18:21;;;;;;;6.38;4.05;;;26.30;99.90;;;;;;5252602;28;20016;-62
2022/07/23 02:20:52;;;;;;;7.03;4.75;;;26.30;99.90;;;;;;5247395;28;20036;-62
2022/07/23 02:23:23;;;;;;;6.25;4.55;;;26.30;99.90;;;;;;5227788;28;20021;-60
2022/07/23 02:25:54;;;;;;;6.10;4.50;;;26.30;99.90;;;;;;5233008;28;20024;-62
2022/07/23 02:28:25;;;;;;;6.60;4.75;;;26.40;99.90;;;;;;5260033;28;20042;-62
2022/07/23 02:30:57;;;;;;;5.68;4.68;;;26.30;99.90;;;;;;5257767;28;20253;-62
2022/07/23 02:33:28;;;;;;;6.03;3.97;;;26.30;99.90;;;;;;5241975;28;20027;-62
2022/07/23 02:36:02;;;;;;;7.60;4.90;;;26.20;99.90;;;;;;5240200;28;20034;-61
2022/07/23 02:38:36;;;;;;;6.55;4.10;;;26.20;99.90;;;;;;5241407;28;20226;-62
2022/07/23 02:41:13;;;;;;;6.47;4.20;;;26.10;99.90;;;;;;5224320;28;20612;-62
2022/07/23 02:43:46;;;;;;;9.30;4.45;;;26.00;99.90;;;;;;5240493;28;20039;-61
2022/07/23 02:46:21;;;;;;;7.47;4.70;;;25.90;99.90;;;;;;5244911;28;20221;-62
2022/07/23 02:48:53;;;;;;;5.47;4.55;;;25.80;99.90;;;;;;5222702;28;20237;-62
2022/07/23 02:51:24;;;;;;;7.05;4.40;;;25.60;99.90;;;;;;5243851;28;20201;-61
2022/07/23 02:53:55;;;;;;;6.95;4.68;;;25.40;99.90;;;;;;5222751;28;20028;-63
2022/07/23 02:56:26;;;;;;;5.57;4.18;;;25.30;99.90;;;;;;5222578;28;20210;-62
2022/07/23 02:58:58;;;;;;;5.07;4.13;;;25.30;99.90;;;;;;5220502;28;20086;-62
2022/07/23 03:01:29;;;;;;;5.50;4.35;;;25.20;99.90;;;;;;5203984;28;20039;-62
2022/07/23 03:04:00;;;;;;;6.40;4.50;;;25.10;99.90;;;;;;5239237;28;20039;-61
2022/07/23 03:06:34;;;;;;;6.72;4.40;;;25.10;99.90;;;;;;5227987;28;20054;-61
2022/07/23 03:09:09;;;;;;;7.15;5.30;;;25.10;99.90;;;;;;5239427;28;20025;-61
2022/07/23 03:11:40;;;;;;;4.68;4.00;;;25.00;99.90;;;;;;5238390;28;20321;-61
2022/07/23 03:14:16;;;;;;;4.90;4.20;;;25.00;99.90;;;;;;5240307;28;20210;-61
2022/07/23 03:16:49;;;;;;;7.25;4.65;;;24.90;99.90;;;;;;5202026;28;20039;-62
2022/07/23 03:19:26;;;;;;;10.05;5.00;;;24.80;99.90;;;;;;5205282;28;20454;-61
2022/07/23 03:21:58;;;;;;;4.95;4.10;;;24.80;99.90;;;;;;5244222;28;20031;-62
2022/07/23 03:25:14;;;;;;;7.97;4.30;;;24.80;99.90;;;;;;5224996;28;20020;-62
2022/07/23 03:27:29;;;;;;;6.95;4.63;;;24.80;99.90;;;;;;5237834;28;20028;-62
2022/07/23 03:30:04;;;;;;;6.95;4.82;;;24.70;99.90;;;;;;5262578;28;20022;-62
2022/07/23 03:32:41;;;;;;;5.43;4.60;;;24.70;99.90;;;;;;5242555;28;20023;-61
2022/07/23 03:35:15;;;;;;;5.90;4.70;;;24.60;99.90;;;;;;5242186;28;20354;-62
2022/07/23 03:37:47;;;;;;;6.68;4.13;;;24.60;99.90;;;;;;5236439;28;20032;-62
2022/07/23 03:40:20;;;;;;;7.30;4.57;;;24.40;99.90;;;;;;5243914;28;20023;-62
2022/07/23 03:42:54;;;;;;;6.72;4.32;;;24.40;99.90;;;;;;5240222;28;20036;-61
2022/07/23 03:45:30;;;;;;;8.70;4.20;;;24.40;99.90;;;;;;5240026;28;20026;-62
2022/07/23 03:48:01;;;;;;;4.93;4.40;;;24.30;99.90;;;;;;5248228;28;20024;-62
2022/07/23 03:50:37;;;;;;;5.50;4.60;;;24.30;99.90;;;;;;5248494;28;20035;-62
2022/07/23 03:53:13;;;;;;;6.22;4.60;;;24.30;99.90;;;;;;5248549;28;20024;-61
2022/07/23 03:55:44;;;;;;;5.57;4.78;;;24.20;99.90;;;;;;5245130;28;20032;-62
2022/07/23 03:58:19;;;;;;;6.40;4.55;;;24.10;99.90;;;;;;5239635;28;20206;-62
2022/07/23 04:00:54;;;;;;;6.40;4.68;;;24.10;99.90;;;;;;5224784;28;20035;-63
2022/07/23 04:03:25;;;;;;;7.43;4.90;;;24.20;99.90;;;;;;5228261;28;20028;-66
2022/07/23 04:05:57;;;;;;;5.63;4.70;;;24.30;99.90;;;;;;5221754;28;20333;-66
2022/07/23 04:08:30;;;;;;;7.05;4.50;;;24.30;99.90;;;;;;5238360;28;20038;-62
2022/07/23 04:11:07;;;;;;;5.53;4.57;;;24.30;99.90;;;;;;5238648;28;20040;-62
2022/07/23 04:13:40;;;;;;;6.43;4.47;;;24.40;99.90;;;;;;5239194;28;20067;-61
2022/07/23 04:16:14;;;;;;;6.05;4.63;;;24.50;99.90;;;;;;5218672;28;20054;-62
2022/07/23 04:18:45;;;;;;;6.70;4.63;;;24.60;99.90;;;;;;5242699;28;20229;-61
2022/07/23 04:21:22;;;;;;;5.65;4.40;;;24.60;99.90;;;;;;5240354;28;20285;-62
2022/07/23 04:23:54;;;;;;;5.93;4.70;;;24.70;99.90;;;;;;5240520;28;20022;-62
2022/07/23 04:26:26;;;;;;;6.82;4.65;;;24.80;99.90;;;;;;5225482;28;20030;-62
2022/07/23 04:29:02;;;;;;;5.82;4.05;;;24.80;99.90;;;;;;5238760;28;20025;-62
2022/07/23 04:31:33;;;;;;;5.20;4.53;;;24.90;99.90;;;;;;5237392;28;20197;-62
2022/07/23 04:34:05;;;;;;;7.65;4.18;;;25.10;99.90;;;;;;5217095;28;20311;-62
2022/07/23 04:36:36;;;;;;;6.28;4.53;;;25.20;99.90;;;;;;5231932;28;20058;-61
2022/07/23 04:39:08;;;;;;;6.15;4.30;;;25.20;99.90;;;;;;5222219;28;20025;-61
2022/07/23 04:41:39;;;;;;;6.05;4.20;;;25.20;99.90;;;;;;5202679;28;20029;-62
2022/07/23 04:44:11;;;;;;;7.55;4.50;;;25.30;99.90;;;;;;5222417;28;20034;-62
2022/07/23 04:46:44;;;;;;;5.47;4.00;;;25.40;99.90;;;;;;5241447;28;20033;-62
2022/07/23 04:49:15;;;;;;;5.40;4.55;;;25.60;99.90;;;;;;5238739;28;20024;-63
2022/07/23 04:51:50;;;;;;;6.53;4.20;;;25.80;99.90;;;;;;5237554;28;20029;-62
2022/07/23 04:54:21;;;;;;;5.70;4.45;;;25.80;99.90;;;;;;5219734;28;20024;-62
2022/07/23 04:56:52;;;;;;;6.50;4.22;;;25.80;99.90;;;;;;5220794;28;20203;-62
2022/07/23 04:59:35;;;;;;;6.57;4.85;;;25.80;99.90;;;;;;5221182;28;20299;-62
2022/07/23 05:02:11;;;;;;;5.38;3.72;;;25.80;99.90;;;;;;5237855;28;20020;-62
2022/07/23 05:04:45;;;;;;;6.95;4.00;;;25.80;99.90;;;;;;5209417;28;20095;-62
2022/07/23 05:07:19;;;;;;;5.30;3.83;;;25.70;99.90;;;;;;5229092;28;20043;-62
2022/07/23 05:09:50;;;;;;;6.28;3.83;;;25.80;99.90;;;;;;5226159;28;20039;-63
2022/07/23 05:12:24;;;;;;;4.38;3.50;;;25.80;99.90;;;;;;5242198;28;20028;-62
2022/07/23 05:14:55;;;;;;;5.07;3.92;;;26.10;99.90;;;;;;5224968;28;20209;-62
2022/07/23 05:17:29;;;;;;;5.68;4.30;;;26.60;99.90;;;;;;5222804;28;20209;-62
2022/07/23 05:20:03;;;;;;;5.22;3.38;;;27.10;99.90;;;;;;5241549;28;20072;-63
2022/07/23 05:22:34;;;;;;;5.78;3.97;;;27.50;99.90;;;;;;5222518;28;20020;-63
2022/07/23 05:25:06;;;;;;;4.32;3.47;;;27.70;99.90;;;;;;5223383;28;20025;-61
2022/07/23 05:27:40;;;;;;;5.60;3.42;;;27.70;99.90;;;;;;5222915;28;20218;-63
2022/07/23 05:30:14;;;;;;;4.27;3.30;;;27.90;99.90;;;;;;5224146;28;20296;-61
2022/07/23 05:32:45;;;;;;;5.93;3.95;;;28.10;99.90;;;;;;5223704;28;20056;-63
2022/07/23 05:35:19;;;;;;;3.70;3.20;;;28.40;99.90;;;;;;5243669;28;20020;-63
2022/07/23 05:37:52;;;;;;;3.30;3.00;;;28.40;99.90;;;;;;5240797;28;20033;-63
2022/07/23 05:40:26;;;;;;;3.83;3.00;;;28.40;99.90;;;;;;5223817;28;20039;-62
2022/07/23 05:42:59;;;;;;;3.80;3.10;;;28.40;99.90;;;;;;5244224;28;20357;-62
2022/07/23 05:45:36;;;;;;;2.97;2.67;;;28.50;99.90;;;;;;5242849;28;20026;-61
2022/07/23 05:48:12;;;;;;;2.83;2.53;;;28.50;99.90;;;;;;5246013;28;20026;-62
2022/07/23 05:50:45;;;;;;;5.22;3.05;;;28.70;99.90;;;;;;5241044;28;20034;-62
2022/07/23 05:53:18;;;;;;;6.35;3.08;;;28.80;99.90;;;;;;5243715;28;20025;-62
2022/07/23 05:55:50;;;;;;;3.30;2.67;;;28.70;99.90;;;;;;5243847;28;20294;-61
2022/07/23 05:58:21;;;;;;;3.90;3.00;;;28.70;99.90;;;;;;5239807;28;20036;-63
2022/07/23 06:00:55;;;;;;;4.22;3.03;;;28.80;99.90;;;;;;5242192;28;20027;-62
2022/07/23 06:03:26;;;;;;;4.20;3.10;;;28.80;99.90;;;;;;5239234;28;20270;-61
2022/07/23 06:06:03;;;;;;;3.25;2.60;;;28.70;99.90;;;;;;5196956;28;20041;-61
2022/07/23 06:08:37;;;;;;;3.35;2.90;;;28.80;99.90;;;;;;5202600;28;20345;-62
2022/07/23 06:11:08;;;;;;;3.43;2.83;;;28.90;99.90;;;;;;5222308;28;20042;-64
2022/07/23 06:13:39;;;;;;;3.25;2.72;;;28.80;99.90;;;;;;5239721;28;20646;-61
2022/07/23 06:16:10;;;;;;;3.58;3.00;;;28.80;99.90;;;;;;5260060;28;20228;-61
2022/07/23 06:18:44;;;;;;;4.40;3.58;;;28.70;99.90;;;;;;5244490;28;20016;-60
2022/07/23 06:21:15;;;;;;;3.92;2.92;;;28.50;99.90;;;;;;5244635;28;20224;-62
2022/07/23 06:23:46;;;;;;;5.32;3.47;;;28.50;99.90;;;;;;5242238;28;20051;-61
2022/07/23 06:26:18;;;;;;;3.83;3.25;;;28.60;99.90;;;;;;5221205;28;20058;-61
2022/07/23 06:28:49;;;;;;;3.80;3.40;;;28.40;99.90;;;;;;5222372;28;20028;-63
2022/07/23 06:31:20;;;;;;;4.47;3.10;;;28.50;99.90;;;;;;5222670;28;20024;-62
2022/07/23 06:33:51;;;;;;;3.58;2.92;;;28.50;99.90;;;;;;5205450;28;20034;-61
2022/07/23 06:36:30;;;;;;;5.70;3.33;;;28.40;99.90;;;;;;5245526;28;20037;-61
2022/07/23 06:39:01;;;;;;;5.45;3.47;;;28.50;99.90;;;;;;5243613;28;20050;-62
2022/07/23 06:41:32;;;;;;;5.00;3.15;;;28.70;99.90;;;;;;5222073;28;20024;-61
2022/07/23 06:44:04;;;;;;;3.97;2.97;;;28.80;99.90;;;;;;5205492;28;20032;-61
2022/07/23 06:46:39;;;;;;;4.05;2.67;;;28.80;99.90;;;;;;5240999;28;20024;-60
2022/07/23 06:49:12;;;;;;;;;;;28.70;99.90;;;;;;5222023;28;20029;-60
2022/07/23 06:51:44;;;;;;;3.35;2.65;;;28.90;99.90;;;;;;5242764;28;19901;-61
2022/07/23 06:54:18;;;;;;;3.60;2.67;;;29.10;99.90;;;;;;5224264;28;20316;-62
2022/07/23 06:56:49;;;;;;;2.80;2.42;;;29.10;99.90;;;;;;5243040;28;20040;-61
2022/07/23 06:59:24;;;;;;;4.65;2.67;;;29.30;99.90;;;;;;5222613;28;20310;-62
2022/07/23 07:01:55;;;;;;;3.38;2.40;;;29.40;99.90;;;;;;5238243;28;20028;-62
2022/07/23 07:04:29;;;;;;;2.85;2.53;;;29.40;99.90;;;;;;5230012;28;20031;-62
2022/07/23 07:07:03;;;;;;;4.63;2.20;;;29.40;99.90;;;;;;5221515;28;20341;-61
2022/07/23 07:09:34;;;;;;;3.10;2.20;;;29.00;99.90;;;;;;5237418;28;20034;-61
2022/07/23 07:12:08;;;;;;;2.20;2.00;;;28.80;99.90;;;;;;5239623;28;20024;-61
2022/07/23 07:14:39;;;;;;;;;;;28.80;99.90;;;;;;5239012;28;20032;-60
2022/07/23 07:17:12;;;;;;;3.88;2.40;;;28.70;99.90;;;;;;5224236;28;19904;-61
2022/07/23 07:19:49;;;;;;;2.43;1.77;;;28.90;99.90;;;;;;5222156;28;20016;-62
2022/07/23 07:22:23;;;;;;;2.80;2.30;;;29.40;99.90;;;;;;5239596;28;20419;-65
2022/07/23 07:24:59;;;;;;;2.08;1.77;;;29.50;99.90;;;;;;5241321;28;20024;-62
2022/07/23 07:27:30;;;;;;;2.28;1.98;;;29.60;99.90;;;;;;5218829;28;20042;-61
2022/07/23 07:30:05;;;;;;;2.97;2.30;;;29.90;99.90;;;;;;5236902;28;20327;-63
2022/07/23 07:32:42;;;;;;;2.70;1.92;;;29.80;99.90;;;;;;5239753;28;20037;-62
2022/07/23 07:35:13;;;;;;;3.22;2.30;;;29.90;99.90;;;;;;5241546;28;20016;-61
2022/07/23 07:37:44;;;;;;;2.55;2.10;;;30.00;99.90;;;;;;5243987;28;20032;-61
2022/07/23 07:40:21;;;;;;;2.28;2.00;;;29.90;99.90;;;;;;5242467;28;20020;-62
2022/07/23 07:42:54;;;;;;;2.83;2.30;;;29.80;99.90;;;;;;5260984;28;20027;-62
2022/07/23 07:45:30;;;;;;;3.28;1.88;;;29.80;99.90;;;;;;5259607;28;20333;-61
2022/07/23 07:48:01;;;;;;;2.58;1.80;;;29.70;99.90;;;;;;5241712;28;20038;-61
2022/07/23 07:50:32;;;;;;;2.17;1.90;;;29.90;99.90;;;;;;5259249;28;20020;-62
2022/07/23 07:53:04;;;;;;;2.75;1.85;;;30.10;99.90;;;;;;5254405;28;20020;-61
2022/07/23 07:55:35;;;;;;;2.85;2.15;;;30.00;99.90;;;;;;5217886;28;20289;-60
2022/07/23 07:58:06;;;;;;;2.17;1.83;;;30.10;99.90;;;;;;5219225;28;20288;-61
2022/07/23 08:00:40;;;;;;;2.60;2.00;;;30.00;99.90;;;;;;5238949;28;20024;-62
2022/07/23 08:03:13;;;;;;;2.40;1.90;;;30.00;99.90;;;;;;5220747;28;20033;-62
2022/07/23 08:05:45;;;;;;;2.42;2.00;;;30.10;99.90;;;;;;5227155;28;20361;-62
2022/07/23 08:08:16;;;;;;;2.97;1.58;;;30.40;99.90;;;;;;5204788;28;20040;-61
2022/07/23 08:10:50;;;;;;;2.25;2.00;;;30.60;99.90;;;;;;5242910;28;20021;-61
2022/07/23 08:13:21;;;;;;;3.28;2.50;;;30.30;99.90;;;;;;5240028;28;20190;-61
2022/07/23 08:15:56;;;;;;;3.53;2.38;;;30.20;99.90;;;;;;5253020;28;20505;-61
2022/07/23 08:18:29;;;;;;;;;;;30.40;99.90;;;;;;5223285;28;20040;-63
2022/07/23 08:21:00;;;;;;;3.10;2.20;;;30.60;99.90;;;;;;5246321;28;19900;-62
2022/07/23 08:23:31;;;;;;;3.22;2.28;;;31.20;99.90;;;;;;5203359;28;20032;-62
2022/07/23 08:26:03;;;;;;;8.65;2.65;;;31.60;99.90;;;;;;5238195;28;20240;-63
2022/07/23 08:28:35;;;;;;;2.30;1.90;;;31.70;99.90;;;;;;5233236;28;20186;-62
2022/07/23 08:31:07;;;;;;;2.85;2.38;;;31.90;99.90;;;;;;5232863;28;20020;-62
2022/07/23 08:33:38;;;;;;;2.85;2.03;;;32.10;99.90;;;;;;5240297;28;20304;-61
2022/07/23 08:36:09;;;;;;;2.60;2.22;;;31.50;99.90;;;;;;5206065;28;20321;-62
2022/07/23 08:38:43;;;;;;;2.80;2.50;;;32.10;99.90;;;;;;5224710;28;20016;-62
2022/07/23 08:41:17;;;;;;;2.53;2.05;;;32.20;99.90;;;;;;5226411;28;20047;-63
2022/07/23 08:43:48;;;;;;;;;;;32.50;99.90;;;;;;5244838;28;20301;-64
2022/07/23 08:46:22;;;;;;;2.58;2.22;;;32.30;99.90;;;;;;5242692;28;19900;-62
2022/07/23 08:48:54;;;;;;;2.83;2.60;;;31.80;99.90;;;;;;5242511;28;20034;-62
2022/07/23 08:51:27;;;;;;;2.97;2.22;;;32.00;99.90;;;;;;5244672;28;20191;-63
2022/07/23 08:53:58;;;;;;;2.28;1.95;;;32.00;99.90;;;;;;5243970;28;20027;-62
2022/07/23 08:56:32;;;;;;;3.65;2.50;;;32.50;99.90;;;;;;5225299;28;20466;-62
2022/07/23 08:59:06;;;;;;;2.85;2.30;;;32.50;99.90;;;;;;5227002;28;20040;-62
2022/07/23 09:01:37;;;;;;;3.08;2.55;;;32.90;99.90;;;;;;5228127;28;20214;-62
2022/07/23 09:04:11;;;;;;;3.05;2.22;;;32.60;99.90;;;;;;5243848;28;20027;-61
2022/07/23 09:06:42;;;;;;;;;;;32.60;99.90;;;;;;5242486;28;20029;-61
2022/07/23 09:09:21;;;;;;;3.85;3.45;;;32.10;99.90;;;;;;5224582;28;19911;-64
2022/07/23 09:12:04;;;;;;;2.38;2.17;;;32.20;99.90;;;;;;5249348;28;20028;-61
2022/07/23 09:14:48;;;;;;;2.53;2.20;;;32.20;99.90;;;;;;5230758;28;20054;-62
2022/07/23 09:17:22;;;;;;;4.28;2.53;;;32.10;99.90;;;;;;5225458;28;20087;-62
2022/07/23 09:20:06;;;;;;;;;;;32.30;99.90;;;;;;5243314;28;20328;-61
2022/07/23 09:22:39;;;;;;;4.93;2.83;;;32.40;99.90;;;;;;5224798;28;19907;-61
2022/07/23 09:25:21;;;;;;;5.50;2.47;;;32.60;99.90;;;;;;5222316;28;20025;-62
2022/07/23 09:28:07;;;;;;;2.40;2.20;;;32.40;99.90;;;;;;5240380;28;20028;-62
2022/07/23 09:30:49;;;;;;;3.40;2.63;;;32.60;99.90;;;;;;5223576;28;20194;-62
2022/07/23 09:33:22;;;;;;;2.58;2.38;;;32.50;99.90;;;;;;5227069;28;20023;-62
2022/07/23 09:35:55;;;;;;;2.70;2.07;;;32.40;99.90;;;;;;5224574;28;20205;-63
2022/07/23 09:38:29;;;;;;;3.60;2.47;;;32.30;99.90;;;;;;5226708;28;20028;-62
2022/07/23 09:41:11;;;;;;;3.05;2.80;;;32.70;99.90;;;;;;5209476;28;20032;-62
2022/07/23 09:43:43;;;;;;;4.43;2.05;;;32.90;99.90;;;;;;5225586;28;20021;-63
2022/07/23 09:46:24;;;;;;;3.35;2.50;;;33.00;99.90;;;;;;5224477;28;20205;-62
2022/07/23 09:48:56;;;;;;;4.05;2.78;;;33.30;99.90;;;;;;5244504;28;20025;-63
2022/07/23 09:51:36;;;;;;;7.13;3.10;;;33.80;99.90;;;;;;5222786;28;20013;-62
2022/07/23 09:54:30;;;;;;;5.20;2.83;;;34.50;99.90;;;;;;5230019;28;20324;-62
2022/07/23 09:57:08;;;;;;;3.90;2.72;;;33.60;99.90;;;;;;5244876;28;20245;-62
2022/07/23 09:59:43;;;;;;;2.72;2.53;;;33.50;99.90;;;;;;5223720;28;20039;-61
2022/07/23 10:02:14;;;;;;;2.38;2.17;;;33.60;99.90;;;;;;5240126;28;20036;-62
2022/07/23 10:04:47;;;;;;;3.70;2.70;;;33.30;99.90;;;;;;5195821;28;20062;-63
2022/07/23 10:07:23;;;;;;;3.92;2.53;;;33.60;99.90;;;;;;5223205;28;20024;-62
2022/07/23 10:09:55;;;;;;;3.28;2.97;;;33.50;99.90;;;;;;5241342;28;20328;-62
2022/07/23 10:15:18;;;;;;;2.83;2.45;;;34.40;99.90;;;;;;5244071;28;20020;-62
2022/07/23 10:17:55;;;;;;;3.20;2.53;;;34.60;99.90;;;;;;5223085;28;20029;-62
2022/07/23 10:20:29;;;;;;;2.78;2.55;;;35.00;99.90;;;;;;5213767;28;20033;-62
2022/07/23 10:23:11;;;;;;;4.75;3.08;;;34.80;99.90;;;;;;5243541;28;20032;-62
2022/07/23 10:25:51;;;;;;;3.22;2.92;;;35.00;99.90;;;;;;5242470;28;20223;-62
2022/07/23 10:28:57;;;;;;;4.10;2.97;;;34.90;99.90;;;;;;5224274;28;20047;-61
2022/07/23 10:32:02;;;;;;;4.10;2.80;;;34.60;99.90;;;;;;5242830;28;20031;-62
2022/07/23 10:35:27;;;;;;;3.85;3.42;;;34.10;99.90;;;;;;5242590;28;20026;-63
2022/07/23 10:38:13;;;;;;;3.90;3.10;;;33.90;99.90;;;;;;5159665;28;20176;-61
2022/07/23 10:40:59;;;;;;;4.03;2.55;;;33.30;99.90;;;;;;5157016;28;20304;-62
2022/07/23 10:43:34;;;;;;;3.45;3.15;;;32.80;99.90;;;;;;5155889;28;20041;-64
2022/07/23 10:46:51;;;;;;;3.90;2.75;;;32.90;99.90;;;;;;5207267;28;20274;-62
2022/07/23 10:49:35;;;;;;;4.57;3.15;;;33.50;99.90;;;;;;5222218;28;20028;-61
2022/07/23 10:52:15;;;;;;;6.97;3.72;;;33.40;99.90;;;;;;5237834;28;20038;-61
2022/07/23 10:55:01;;;;;;;3.70;3.20;;;33.90;99.90;;;;;;5240223;28;20038;-62
2022/07/23 10:57:48;;;;;;;3.20;2.90;;;34.70;99.90;;;;;;5226800;28;20414;-62
2022/07/23 11:00:28;;;;;;;2.90;2.58;;;34.20;99.90;;;;;;5232814;28;20024;-62
2022/07/23 11:03:08;;;;;;;3.85;3.03;;;33.40;99.90;;;;;;5229154;28;20028;-62
2022/07/23 11:05:48;;;;;;;3.45;3.05;;;33.20;99.90;;;;;;5218392;28;20333;-61
2022/07/23 11:08:20;;;;;;;3.75;2.95;;;33.10;99.90;;;;;;5240394;28;20198;-63
2022/07/23 11:11:08;;;;;;;4.60;2.80;;;33.50;99.90;;;;;;5239009;28;20474;-62
2022/07/23 11:13:45;;;;;;;3.67;2.80;;;33.70;99.90;;;;;;5223030;28;20016;-61
2022/07/23 11:16:22;;;;;;;3.92;3.25;;;34.00;99.90;;;;;;5238823;28;20024;-62
2022/07/23 11:18:56;;;;;;;3.70;3.10;;;33.50;99.90;;;;;;5220930;28;20195;-63
2022/07/23 11:21:36;;;;;;;;;;;33.60;99.90;;;;;;5240500;28;20044;-62
2022/07/23 11:24:13;;;;;;;3.15;2.83;;;34.00;99.90;;;;;;5241570;28;19906;-61
2022/07/23 11:26:51;;;;;;;3.40;2.72;;;34.40;99.90;;;;;;5239378;28;20194;-62
2022/07/23 11:29:25;;;;;;;3.65;2.90;;;34.70;99.90;;;;;;5239193;28;20284;-62
2022/07/23 11:32:00;;;;;;;3.38;2.53;;;34.00;99.90;;;;;;5239294;28;20021;-61
2022/07/23 11:34:34;;;;;;;7.03;3.38;;;33.80;99.90;;;;;;5239702;28;20163;-63
2022/07/23 11:37:15;;;;;;;4.88;3.30;;;33.90;99.90;;;;;;5239942;28;20255;-62
2022/07/23 11:39:53;;;;;;;4.53;3.47;;;33.60;99.90;;;;;;5221167;28;20047;-62
2022/07/23 11:42:24;;;;;;;5.07;4.05;;;33.70;99.90;;;;;;5244814;28;20032;-61
2022/07/23 11:45:01;;;;;;;4.93;3.60;;;33.80;99.90;;;;;;5241001;28;20342;-61
2022/07/23 11:47:32;;;;;;;4.38;3.90;;;34.00;99.90;;;;;;5245921;28;20020;-62
2022/07/23 11:50:06;;;;;;;3.92;3.03;;;34.20;99.90;;;;;;5242437;28;20027;-62
2022/07/23 11:52:40;;;;;;;3.85;3.53;;;34.00;99.90;;;;;;5240214;28;20178;-61
2022/07/23 11:55:12;;;;;;;4.00;3.55;;;33.60;99.90;;;;;;5241060;28;20029;-62
2022/07/23 11:57:46;;;;;;;4.18;3.70;;;33.40;99.90;;;;;;5240901;28;20028;-62
2022/07/23 12:00:28;;;;;;;3.83;3.17;;;33.30;99.90;;;;;;5224898;28;20039;-63
2022/07/23 12:03:03;;;;;;;5.32;3.50;;;33.10;99.90;;;;;;5239985;28;20037;-62
2022/07/23 12:05:43;;;;;;;4.90;3.38;;;32.90;99.90;;;;;;5212493;28;20399;-61
2022/07/23 12:08:14;;;;;;;6.78;3.05;;;32.60;99.90;;;;;;5241192;28;20067;-61
2022/07/23 12:10:45;;;;;;;3.58;2.90;;;32.60;99.90;;;;;;5243339;28;20032;-61
2022/07/23 12:13:21;;;;;;;3.90;3.17;;;32.50;99.90;;;;;;5222151;28;20032;-62
2022/07/23 12:15:54;;;;;;;4.57;2.60;;;32.30;99.90;;;;;;5245164;28;20025;-62
2022/07/23 12:18:33;;;;;;;3.15;2.78;;;32.30;99.90;;;;;;5239722;28;20024;-63
2022/07/23 12:21:09;;;;;;;3.80;2.83;;;32.00;99.90;;;;;;5205993;28;20214;-61
2022/07/23 12:23:41;;;;;;;4.03;2.95;;;31.70;99.90;;;;;;5244875;28;20020;-60
2022/07/23 12:26:16;;;;;;;2.55;2.28;;;31.30;99.90;;;;;;5241525;28;20028;-61
2022/07/23 12:28:52;;;;;;;2.78;2.47;;;31.30;99.90;;;;;;5244515;28;20024;-61
2022/07/23 12:31:29;;;;;;;2.97;2.47;;;31.20;99.90;;;;;;5232653;28;20310;-61
2022/07/23 12:34:19;;;;;;;2.55;2.20;;;31.00;99.90;;;;;;5220480;28;20034;-61
2022/07/23 12:36:51;;;;;;;2.95;2.30;;;30.80;99.90;;;;;;5239942;28;20026;-61
2022/07/23 12:39:31;;;;;;;3.20;2.38;;;30.70;99.90;;;;;;5239646;28;20225;-61
2022/07/23 12:42:11;;;;;;;3.97;1.92;;;30.50;99.90;;;;;;5241381;28;20248;-62
2022/07/23 12:45:11;;;;;;;2.88;2.00;;;30.50;99.90;;;;;;5237081;28;20355;-61
2022/07/23 12:47:56;;;;;;;2.30;2.10;;;30.60;99.90;;;;;;5238361;28;20020;-61
2022/07/23 12:50:44;;;;;;;1.88;1.70;;;30.90;99.90;;;;;;5227182;28;20023;-62
2022/07/23 12:53:18;;;;;;;2.20;1.67;;;31.20;99.90;;;;;;5238075;28;20035;-63
2022/07/23 12:55:58;;;;;;;1.75;1.55;;;31.20;99.90;;;;;;5202312;28;20039;-62
2022/07/23 12:58:43;;;;;;;2.20;1.95;;;31.40;99.90;;;;;;5241589;28;20020;-62
2022/07/23 13:01:23;;;;;;;2.25;2.03;;;32.10;99.90;;;;;;5239134;28;20024;-62
2022/07/23 13:03:55;;;;;;;2.53;1.60;;;32.30;99.90;;;;;;5234990;28;20039;-62
2022/07/23 13:07:01;;;;;;;2.75;2.20;;;32.20;99.90;;;;;;5227544;28;20368;-63
2022/07/23 13:09:33;;;;;;;2.15;1.92;;;32.80;99.90;;;;;;5212805;28;20043;-62
2022/07/23 13:12:05;;;;;;;2.00;1.80;;;34.50;99.90;;;;;;5215286;28;20051;-62
2022/07/23 13:14:41;;;;;;;1.67;1.33;;;34.70;99.90;;;;;;5235509;28;20131;-62
2022/07/23 13:17:18;;;;;;;2.25;1.58;;;34.40;99.90;;;;;;5222628;28;20028;-62
2022/07/23 13:19:51;;;;;;;4.22;2.00;;;35.00;99.90;;;;;;5224463;28;20037;-62
2022/07/23 13:22:23;;;;;;;;;;;33.80;99.90;;;;;;5240709;28;20352;-61
2022/07/23 13:24:54;;;;;;;1.50;1.40;;;33.50;99.90;;;;;;5224116;28;19900;-61
2022/07/23 13:27:29;;;;;;;1.70;1.60;;;33.40;99.90;;;;;;5241855;28;20048;-62
2022/07/23 13:30:00;;;;;;;;;;;33.10;99.90;;;;;;5226215;28;20275;-62
2022/07/23 13:32:39;;;;;;;2.00;1.20;;;33.00;99.90;;;;;;5240865;28;20194;-62
2022/07/23 13:35:11;;;;;;;2.28;1.27;;;32.90;99.90;;;;;;5227871;28;20047;-63